Time;durP1;ratioP1;P1;durP2;ratioP2;P2;SDS_P1;SDS_P2;PMS_P1;PMS_P2;Temp;Humidity;BMP_temperature;BMP_pressure;BME280_temperature;BME280_humidity;BME280_pressure;Samples;Min_cycle;Max_cycle;Signal;HPM_P1;HPM_P2
2021/12/26 00:00:03;;;;;;;4.13;2.17;;;;;;;-3.02;63.50;100793.16;5034114;28;20083;-41
2021/12/26 00:02:29;;;;;;;7.25;2.80;;;;;;;-3.10;63.51;100801.53;5033703;28;20041;-41
2021/12/26 00:04:54;;;;;;;6.10;2.63;;;;;;;-3.16;63.63;100799.25;5034023;28;20397;-40
2021/12/26 00:07:19;;;;;;;5.07;2.85;;;;;;;-3.13;63.73;100796.47;5032783;28;20478;-40
2021/12/26 00:09:45;;;;;;;6.18;2.78;;;;;;;-3.12;62.85;100811.28;5033735;28;20041;-40
2021/12/26 00:12:10;;;;;;;4.00;2.22;;;;;;;-3.16;63.21;100801.88;5032475;28;20021;-40
2021/12/26 00:14:36;;;;;;;7.78;2.47;;;;;;;-3.03;63.27;100797.53;5048954;28;20021;-40
2021/12/26 00:17:02;;;;;;;4.07;2.15;;;;;;;-3.05;63.93;100807.34;5033610;28;20025;-40
2021/12/26 00:19:27;;;;;;;5.53;2.28;;;;;;;-3.02;63.22;100801.06;5033669;28;20449;-40
2021/12/26 00:21:52;;;;;;;6.57;2.40;;;;;;;-3.04;62.67;100805.56;5033538;28;20132;-40
2021/12/26 00:24:19;;;;;;;6.03;2.45;;;;;;;-3.06;62.49;100803.00;5033569;28;20025;-40
2021/12/26 00:26:44;;;;;;;5.95;2.60;;;;;;;-3.18;63.09;100803.78;5033677;28;20079;-41
2021/12/26 00:29:09;;;;;;;8.10;2.55;;;;;;;-3.24;63.44;100807.63;5033483;28;20473;-41
2021/12/26 00:31:35;;;;;;;6.38;2.45;;;;;;;-3.27;63.70;100799.06;5033292;28;20503;-40
2021/12/26 00:34:00;;;;;;;7.03;2.72;;;;;;;-3.25;63.11;100795.41;5031936;28;20556;-41
2021/12/26 00:36:27;;;;;;;7.13;2.38;;;;;;;-3.31;62.77;100791.38;5031988;28;20029;-40
2021/12/26 00:38:52;;;;;;;11.52;2.88;;;;;;;-3.34;62.76;100786.31;5033228;28;20064;-41
2021/12/26 00:41:17;;;;;;;5.57;2.55;;;;;;;-3.31;62.86;100794.00;5033059;28;20060;-41
2021/12/26 00:43:43;;;;;;;7.20;2.60;;;;;;;-3.40;61.96;100793.72;5033447;28;20068;-41
2021/12/26 00:46:08;;;;;;;8.63;2.50;;;;;;;-3.48;62.16;100791.53;5033095;28;20365;-41
2021/12/26 00:48:33;;;;;;;8.52;2.53;;;;;;;-3.56;63.05;100789.38;5033003;28;20029;-41
2021/12/26 00:50:59;;;;;;;3.63;2.38;;;;;;;-3.60;63.30;100785.25;5033049;28;20365;-41
2021/12/26 00:53:24;;;;;;;6.57;2.03;;;;;;;-3.57;63.05;100789.50;5031807;28;20048;-41
2021/12/26 00:55:51;;;;;;;7.28;2.67;;;;;;;-3.54;62.68;100786.66;5032712;28;20405;-42
2021/12/26 00:58:16;;;;;;;6.50;3.00;;;;;;;-3.55;63.40;100779.72;5032857;28;20025;-41
2021/12/26 01:00:44;;;;;;;6.22;3.38;;;;;;;-3.60;63.14;100784.41;5032661;28;20025;-41
2021/12/26 01:03:10;;;;;;;4.95;2.35;;;;;;;-3.62;63.73;100784.50;5032736;28;20036;-41
2021/12/26 01:05:37;;;;;;;3.80;2.60;;;;;;;-3.57;63.94;100779.81;5032619;28;20061;-41
2021/12/26 01:08:04;;;;;;;5.63;2.45;;;;;;;-3.55;63.92;100785.00;5032428;28;20055;-41
2021/12/26 01:10:34;;;;;;;4.80;2.10;;;;;;;-3.60;64.22;100792.31;5031418;28;20129;-40
2021/12/26 01:13:13;;;;;;;8.90;3.08;;;;;;;-3.73;65.42;100791.34;5032804;28;20232;-41
2021/12/26 01:15:38;;;;;;;6.45;2.72;;;;;;;-3.72;65.91;100787.78;5032721;28;20029;-41
2021/12/26 01:18:04;;;;;;;4.18;2.55;;;;;;;-3.75;65.82;100784.38;5032602;28;20041;-40
2021/12/26 01:23:07;;;;;;;7.03;2.97;;;;;;;-3.86;66.21;100785.97;5032499;28;20037;-40
2021/12/26 01:25:33;;;;;;;6.97;2.63;;;;;;;-3.90;66.57;100779.19;5032591;28;20030;-41
2021/12/26 01:27:58;;;;;;;8.15;2.63;;;;;;;-3.89;66.88;100780.91;5032617;28;20041;-41
2021/12/26 01:30:23;;;;;;;9.43;3.15;;;;;;;-3.90;67.13;100787.91;5032438;28;20029;-41
2021/12/26 01:32:49;;;;;;;5.75;2.65;;;;;;;-3.94;67.69;100778.53;5032585;28;20026;-41
2021/12/26 01:35:14;;;;;;;8.07;3.03;;;;;;;-3.98;67.27;100777.00;5031266;28;20465;-41
2021/12/26 01:37:40;;;;;;;6.18;2.78;;;;;;;-3.98;67.13;100783.13;5032433;28;20554;-41
2021/12/26 01:40:06;;;;;;;5.53;2.72;;;;;;;-3.97;67.09;100776.09;5032403;28;20035;-41
2021/12/26 01:42:33;;;;;;;5.05;2.80;;;;;;;-3.98;66.09;100771.75;5032494;28;20067;-41
2021/12/26 01:44:59;;;;;;;6.80;2.78;;;;;;;-3.99;66.22;100777.97;5032604;28;20041;-41
2021/12/26 01:47:24;;;;;;;5.38;2.78;;;;;;;-4.01;66.83;100777.19;5047775;28;20037;-41
2021/12/26 01:49:50;;;;;;;6.25;2.80;;;;;;;-4.02;66.82;100773.72;5014681;28;20033;-41
2021/12/26 01:52:15;;;;;;;5.85;2.70;;;;;;;-3.99;66.49;100770.91;5032395;28;20378;-41
2021/12/26 01:54:47;;;;;;;8.55;2.72;;;;;;;-3.99;66.35;100770.91;5014481;28;20041;-41
2021/12/26 01:57:18;;;;;;;6.03;3.03;;;;;;;-4.08;67.41;100770.59;5032369;28;20038;-40
2021/12/26 01:59:46;;;;;;;5.65;2.47;;;;;;;-3.97;66.92;100779.56;5032312;28;20389;-41
2021/12/26 02:02:12;;;;;;;8.70;2.80;;;;;;;-3.99;66.56;100772.69;5032289;28;20044;-41
2021/12/26 02:04:38;;;;;;;4.07;2.58;;;;;;;-3.97;66.28;100758.53;5032091;28;20029;-40
2021/12/26 02:07:05;;;;;;;4.28;2.55;;;;;;;-3.93;67.04;100760.97;5032339;28;20381;-41
2021/12/26 02:09:30;;;;;;;7.45;2.70;;;;;;;-3.95;66.70;100761.06;5030857;28;20017;-41
2021/12/26 02:11:56;;;;;;;8.60;3.03;;;;;;;-3.97;66.99;100757.69;5032176;28;20033;-40
2021/12/26 02:14:21;;;;;;;5.22;2.50;;;;;;;-3.99;66.54;100747.25;5032151;28;20068;-41
2021/12/26 02:16:47;;;;;;;5.85;2.80;;;;;;;-3.98;66.51;100755.97;5032065;28;20029;-41
2021/12/26 02:19:12;;;;;;;6.20;2.85;;;;;;;-3.95;66.62;100754.94;5033962;28;20071;-41
2021/12/26 02:25:12;;;;;;;6.97;2.42;;;;;;;-3.99;66.38;100749.88;5035927;28;20049;-41
2021/12/26 02:29:54;;;;;;;6.97;2.40;;;;;;;-3.98;66.84;100740.22;5035961;28;20090;-40
2021/12/26 02:32:19;;;;;;;5.13;2.80;;;;;;;-4.02;66.25;100738.72;5035689;28;20055;-40
2021/12/26 02:34:45;;;;;;;4.95;2.40;;;;;;;-3.99;66.68;100742.00;5035636;28;20055;-40
2021/12/26 02:37:10;;;;;;;7.35;2.90;;;;;;;-3.99;66.54;100743.78;5035374;28;20040;-40
2021/12/26 02:39:36;;;;;;;6.85;2.80;;;;;;;-3.96;66.07;100738.34;5035345;28;20033;-40
2021/12/26 02:42:01;;;;;;;3.63;2.17;;;;;;;-4.00;65.87;100736.84;5035380;28;20097;-40
2021/12/26 02:44:27;;;;;;;4.70;2.30;;;;;;;-3.99;65.70;100734.09;5035697;28;20029;-39
2021/12/26 02:46:52;;;;;;;3.83;2.40;;;;;;;-3.98;65.66;100721.81;5035305;28;20029;-40
2021/12/26 02:49:22;;;;;;;8.68;3.15;;;;;;;-3.95;65.49;100734.75;5035216;28;20031;-40
2021/12/26 02:51:49;;;;;;;8.38;2.83;;;;;;;-3.89;65.43;100718.63;5035269;28;20044;-40
2021/12/26 02:54:15;;;;;;;6.22;2.85;;;;;;;-3.90;64.19;100711.66;5050534;28;20544;-40
2021/12/26 02:56:40;;;;;;;4.90;2.58;;;;;;;-3.93;64.73;100711.88;5033771;28;20061;-40
2021/12/26 02:59:05;;;;;;;6.20;2.47;;;;;;;-3.94;64.16;100707.56;5035151;28;20025;-40
2021/12/26 03:01:31;;;;;;;7.68;2.38;;;;;;;-3.96;63.15;100709.44;5034784;28;20397;-40
2021/12/26 03:03:56;;;;;;;4.35;2.15;;;;;;;-4.03;63.82;100708.09;5034996;28;20413;-41
2021/12/26 03:06:50;;;;;;;8.35;2.90;;;;;;;-4.01;64.32;100703.59;5033839;28;20077;-41
2021/12/26 03:09:15;;;;;;;4.38;2.40;;;;;;;-3.95;63.99;100711.09;5034867;28;20159;-41
2021/12/26 03:11:44;;;;;;;5.85;2.90;;;;;;;-3.95;64.34;100708.47;5034953;28;20112;-41
2021/12/26 03:14:09;;;;;;;4.65;2.17;;;;;;;-3.98;65.07;100698.16;5034855;28;20029;-41
2021/12/26 03:16:34;;;;;;;7.50;2.67;;;;;;;-3.97;64.74;100694.59;5034886;28;20029;-41
2021/12/26 03:19:00;;;;;;;5.07;2.65;;;;;;;-3.98;64.56;100693.75;5016986;28;20199;-41
2021/12/26 03:21:26;;;;;;;5.72;2.40;;;;;;;-3.95;64.48;100687.44;5033477;28;20025;-41
2021/12/26 03:23:51;;;;;;;8.32;2.88;;;;;;;-3.96;65.15;100691.03;5033404;28;20029;-41
2021/12/26 03:26:17;;;;;;;7.57;2.45;;;;;;;-4.00;64.49;100690.38;5034633;28;20044;-41
2021/12/26 03:28:42;;;;;;;11.50;3.17;;;;;;;-3.97;64.34;100697.22;5034383;28;20037;-41
2021/12/26 03:31:07;;;;;;;6.22;2.90;;;;;;;-3.95;64.51;100691.84;5034315;28;20037;-41
2021/12/26 03:33:33;;;;;;;5.57;2.65;;;;;;;-3.94;64.88;100691.78;5034419;28;20026;-41
2021/12/26 03:35:58;;;;;;;3.35;2.20;;;;;;;-3.93;64.68;100705.75;5034340;28;20033;-40
2021/12/26 03:38:24;;;;;;;5.35;2.83;;;;;;;-3.93;64.35;100705.75;5034457;28;20029;-41
2021/12/26 03:40:52;;;;;;;5.10;2.58;;;;;;;-3.97;64.81;100700.69;5034144;28;20059;-41
2021/12/26 03:43:18;;;;;;;5.03;2.80;;;;;;;-4.02;64.99;100699.28;5034611;28;20025;-41
2021/12/26 03:45:44;;;;;;;6.07;2.90;;;;;;;-4.03;65.13;100700.22;5034268;28;20052;-41
2021/12/26 03:48:12;;;;;;;5.18;2.60;;;;;;;-4.05;65.22;100691.59;5034307;28;20021;-41
2021/12/26 03:50:40;;;;;;;7.30;2.75;;;;;;;-4.05;65.37;100689.81;5034195;28;20021;-41
2021/12/26 03:53:06;;;;;;;4.10;2.40;;;;;;;-4.05;65.48;100691.59;5034013;28;20029;-41
2021/12/26 03:55:31;;;;;;;3.17;2.38;;;;;;;-4.08;65.80;100687.38;5034218;28;20029;-41
2021/12/26 03:57:57;;;;;;;9.13;2.72;;;;;;;-4.09;66.00;100685.66;5034055;28;20537;-41
2021/12/26 04:00:24;;;;;;;9.00;2.55;;;;;;;-4.09;66.19;100684.81;5033939;28;20021;-42
2021/12/26 04:02:50;;;;;;;4.53;2.45;;;;;;;-4.08;66.34;100682.09;5033808;28;20030;-40
2021/12/26 04:05:15;;;;;;;7.00;2.65;;;;;;;-4.06;66.23;100680.22;5033851;28;20030;-41
2021/12/26 04:07:41;;;;;;;5.35;3.00;;;;;;;-4.04;66.42;100682.75;5033716;28;20061;-41
2021/12/26 04:10:08;;;;;;;4.57;2.60;;;;;;;-4.08;66.18;100690.00;5033688;28;20029;-41
2021/12/26 04:12:37;;;;;;;7.28;2.58;;;;;;;-4.07;66.70;100689.03;5033749;28;20108;-41
2021/12/26 04:15:08;;;;;;;10.45;2.70;;;;;;;-4.03;66.17;100689.69;5033682;28;20029;-41
2021/12/26 04:17:34;;;;;;;6.03;2.10;;;;;;;-4.00;66.30;100671.13;5048991;28;20026;-41
2021/12/26 04:19:59;;;;;;;4.85;2.60;;;;;;;-4.03;66.74;100668.66;5032374;28;20072;-41
2021/12/26 04:22:25;;;;;;;6.97;3.10;;;;;;;-4.02;66.22;100670.38;5034010;28;20029;-41
2021/12/26 04:24:51;;;;;;;8.65;2.78;;;;;;;-4.04;66.45;100654.69;5032405;28;20040;-41
2021/12/26 04:27:17;;;;;;;5.88;2.65;;;;;;;-4.04;66.67;100656.47;5033856;28;20040;-42
2021/12/26 04:29:42;;;;;;;4.65;2.47;;;;;;;-4.05;66.33;100660.06;5033651;28;20025;-41
2021/12/26 04:32:08;;;;;;;6.47;2.85;;;;;;;-4.09;67.29;100674.31;5033259;28;20037;-41
2021/12/26 04:34:33;;;;;;;7.20;2.70;;;;;;;-4.08;67.25;100665.47;5033365;28;20374;-41
2021/12/26 04:36:58;;;;;;;3.28;2.00;;;;;;;-4.07;67.16;100677.69;5033309;28;20021;-41
2021/12/26 04:39:24;;;;;;;5.30;3.33;;;;;;;-4.09;67.20;100674.31;5031767;28;20124;-41
2021/12/26 04:41:49;;;;;;;4.40;2.13;;;;;;;-4.06;66.86;100666.22;5032582;28;20036;-41
2021/12/26 04:44:14;;;;;;;10.20;3.08;;;;;;;-4.01;67.54;100666.78;5033044;28;20472;-40
2021/12/26 04:46:40;;;;;;;4.18;2.47;;;;;;;-3.97;66.94;100663.06;5033285;28;20112;-41
2021/12/26 04:49:06;;;;;;;6.65;2.88;;;;;;;-3.98;67.49;100663.97;5033039;28;20120;-41
2021/12/26 04:51:31;;;;;;;5.78;3.15;;;;;;;-3.96;67.24;100659.47;5033044;28;20044;-41
2021/12/26 04:53:56;;;;;;;6.28;2.63;;;;;;;-3.95;66.98;100660.31;5032900;28;20441;-40
2021/12/26 04:56:22;;;;;;;10.35;3.00;;;;;;;-3.91;66.63;100654.78;5032914;28;20428;-41
2021/12/26 04:58:47;;;;;;;4.55;2.35;;;;;;;-3.93;66.41;100648.75;5031577;28;20037;-41
2021/12/26 05:01:13;;;;;;;4.15;2.58;;;;;;;-3.92;66.47;100654.88;5032762;28;20029;-41
2021/12/26 05:03:39;;;;;;;6.43;3.00;;;;;;;-3.93;66.94;100656.66;5032629;28;20026;-41
2021/12/26 05:06:05;;;;;;;5.85;2.75;;;;;;;-3.94;66.30;100647.09;5032434;28;20370;-41
2021/12/26 05:08:30;;;;;;;4.97;2.50;;;;;;;-4.02;67.03;100654.59;5032779;28;20029;-41
2021/12/26 05:10:56;;;;;;;3.95;2.33;;;;;;;-4.03;66.90;100658.16;5032727;28;20036;-41
2021/12/26 05:13:22;;;;;;;6.00;2.60;;;;;;;-4.02;66.93;100652.81;5032862;28;20025;-41
2021/12/26 05:15:47;;;;;;;6.40;2.60;;;;;;;-4.07;67.61;100656.66;5032748;28;20033;-39
2021/12/26 05:18:12;;;;;;;5.13;2.97;;;;;;;-4.07;67.15;100656.66;5032696;28;20064;-41
2021/12/26 05:20:38;;;;;;;6.10;3.05;;;;;;;-4.06;67.61;100658.34;5032397;28;20401;-40
2021/12/26 05:23:04;;;;;;;4.57;2.47;;;;;;;-4.05;67.77;100649.53;5032623;28;20035;-40
2021/12/26 05:25:30;;;;;;;5.22;2.80;;;;;;;-4.00;67.61;100644.84;5032254;28;20075;-40
2021/12/26 05:27:56;;;;;;;3.03;2.13;;;;;;;-4.02;67.65;100644.09;5032373;28;20029;-41
2021/12/26 05:30:22;;;;;;;8.65;2.97;;;;;;;-4.04;67.65;100649.44;5032416;28;20484;-41
2021/12/26 05:32:48;;;;;;;4.88;2.53;;;;;;;-4.03;67.90;100640.63;5032390;28;20057;-41
2021/12/26 05:35:15;;;;;;;6.15;2.85;;;;;;;-4.07;67.69;100640.91;5031221;28;20061;-41
2021/12/26 05:37:41;;;;;;;5.87;2.60;;;;;;;-4.08;67.79;100634.78;5032580;28;20029;-42
2021/12/26 05:40:08;;;;;;;7.47;3.25;;;;;;;-4.08;67.81;100632.16;5032350;28;20295;-40
2021/12/26 05:42:34;;;;;;;6.47;3.15;;;;;;;-4.15;67.49;100628.22;5032500;28;20129;-40
2021/12/26 05:45:00;;;;;;;5.95;2.60;;;;;;;-4.18;68.22;100623.16;5031172;28;20104;-41
2021/12/26 05:47:25;;;;;;;7.82;3.00;;;;;;;-4.10;67.98;100631.41;5032247;28;20044;-40
2021/12/26 05:49:51;;;;;;;6.55;2.80;;;;;;;-4.14;67.96;100623.78;5032212;28;20064;-40
2021/12/26 05:52:18;;;;;;;9.50;3.00;;;;;;;-4.10;67.78;100622.69;5033127;28;20026;-40
2021/12/26 05:54:44;;;;;;;6.50;2.67;;;;;;;-4.12;67.81;100619.31;5036670;28;20101;-40
2021/12/26 05:57:10;;;;;;;5.57;2.50;;;;;;;-4.13;67.95;100621.09;5035193;28;20090;-40
2021/12/26 05:59:35;;;;;;;5.30;2.55;;;;;;;-4.22;67.94;100617.22;5034702;28;20517;-41
2021/12/26 06:02:00;;;;;;;5.47;2.78;;;;;;;-4.27;67.93;100623.69;5035886;28;20022;-40
2021/12/26 06:04:26;;;;;;;7.43;2.95;;;;;;;-4.23;68.17;100619.94;5036107;28;20072;-40
2021/12/26 06:06:52;;;;;;;4.25;2.72;;;;;;;-4.18;68.30;100622.31;5035935;28;20029;-40
2021/12/26 06:09:17;;;;;;;5.40;2.97;;;;;;;-4.18;68.34;100624.94;5035957;28;20032;-41
2021/12/26 06:11:42;;;;;;;5.15;2.85;;;;;;;-4.20;68.45;100625.03;5035904;28;20097;-39
2021/12/26 06:14:08;;;;;;;5.25;3.03;;;;;;;-4.20;68.06;100619.75;5035857;28;20087;-40
2021/12/26 06:16:33;;;;;;;5.88;3.05;;;;;;;-4.19;68.02;100621.44;5035910;28;20032;-41
2021/12/26 06:18:59;;;;;;;8.60;2.55;;;;;;;-4.16;68.13;100628.28;5035716;28;20084;-42
2021/12/26 06:21:24;;;;;;;6.22;3.40;;;;;;;-4.18;67.92;100630.19;5034369;28;20105;-39
2021/12/26 06:23:52;;;;;;;4.97;2.70;;;;;;;-4.25;68.04;100630.53;5035957;28;20428;-40
2021/12/26 06:26:23;;;;;;;5.57;2.92;;;;;;;-4.26;68.22;100628.88;5035761;28;20083;-40
2021/12/26 06:28:48;;;;;;;6.53;3.05;;;;;;;-4.23;68.86;100630.47;5035856;28;20087;-40
2021/12/26 06:31:14;;;;;;;3.58;2.30;;;;;;;-4.24;68.36;100631.38;5035609;28;20184;-40
2021/12/26 06:33:40;;;;;;;5.90;2.80;;;;;;;-4.26;68.89;100626.25;5035534;28;20032;-40
2021/12/26 06:36:06;;;;;;;7.07;2.70;;;;;;;-4.20;68.76;100620.59;5035563;28;20021;-41
2021/12/26 06:38:33;;;;;;;5.07;3.05;;;;;;;-4.19;68.06;100616.19;5017915;28;20041;-40
2021/12/26 06:41:00;;;;;;;7.78;2.67;;;;;;;-4.24;68.36;100624.38;5034124;28;20020;-40
2021/12/26 06:43:25;;;;;;;6.18;2.80;;;;;;;-4.26;68.20;100613.09;5035576;28;20056;-40
2021/12/26 06:45:50;;;;;;;6.75;3.28;;;;;;;-4.27;68.30;100624.53;5034371;28;20489;-40
2021/12/26 06:48:16;;;;;;;7.45;3.17;;;;;;;-4.29;68.31;100615.91;5034151;28;20612;-41
2021/12/26 06:50:44;;;;;;;5.75;3.08;;;;;;;-4.25;68.77;100616.56;5035436;28;20037;-41
2021/12/26 06:53:11;;;;;;;6.18;2.80;;;;;;;-4.27;68.66;100614.00;5035274;28;20525;-41
2021/12/26 06:55:37;;;;;;;6.70;2.80;;;;;;;-4.34;68.60;100598.75;5035430;28;20028;-40
2021/12/26 06:58:02;;;;;;;9.15;2.92;;;;;;;-4.36;68.63;100598.81;5017397;28;20025;-40
2021/12/26 07:00:27;;;;;;;4.75;2.72;;;;;;;-4.39;69.24;100603.44;5034949;28;20462;-39
2021/12/26 07:02:53;;;;;;;5.85;2.53;;;;;;;-4.34;69.09;100604.00;5035393;28;20025;-41
2021/12/26 07:05:18;;;;;;;5.30;3.05;;;;;;;-4.37;69.26;100602.41;5034360;28;20490;-41
2021/12/26 07:07:44;;;;;;;6.97;3.30;;;;;;;-4.42;69.11;100600.03;5033946;28;20326;-41
2021/12/26 07:10:10;;;;;;;6.13;3.13;;;;;;;-4.41;69.20;100599.09;5035200;28;20385;-41
2021/12/26 07:12:35;;;;;;;6.07;2.72;;;;;;;-4.46;69.17;100593.28;5034916;28;20034;-40
2021/12/26 07:15:01;;;;;;;7.28;3.33;;;;;;;-4.46;69.28;100598.53;5035095;28;20112;-41
2021/12/26 07:17:26;;;;;;;6.57;3.08;;;;;;;-4.45;69.38;100599.34;5035150;28;20053;-40
2021/12/26 07:19:52;;;;;;;6.38;2.55;;;;;;;-4.45;69.30;100602.00;5034706;28;20049;-39
2021/12/26 07:22:18;;;;;;;8.60;3.30;;;;;;;-4.47;69.22;100606.50;5033778;28;20080;-41
2021/12/26 07:24:46;;;;;;;6.20;3.00;;;;;;;-4.50;69.25;100609.28;5034863;28;20029;-41
2021/12/26 07:27:12;;;;;;;9.65;3.40;;;;;;;-4.51;69.25;100612.88;5017421;28;20500;-41
2021/12/26 07:29:38;;;;;;;7.95;2.80;;;;;;;-4.49;69.34;100608.38;5017012;28;20452;-40
2021/12/26 07:32:04;;;;;;;7.30;2.83;;;;;;;-4.48;69.57;100604.81;5034588;28;20108;-41
2021/12/26 07:34:29;;;;;;;7.53;3.42;;;;;;;-4.56;69.25;100610.50;5034816;28;20111;-40
2021/12/26 07:36:54;;;;;;;8.73;3.08;;;;;;;-4.53;69.83;100612.09;5033267;28;20437;-40
2021/12/26 07:39:20;;;;;;;5.82;2.85;;;;;;;-4.57;69.51;100610.63;5034477;28;20021;-41
2021/12/26 07:41:45;;;;;;;4.55;2.70;;;;;;;-4.53;69.95;100617.38;5034321;28;20034;-40
2021/12/26 07:44:10;;;;;;;5.07;3.10;;;;;;;-4.46;69.21;100608.19;5034203;28;20026;-41
2021/12/26 07:46:36;;;;;;;5.40;2.72;;;;;;;-4.44;69.50;100607.16;5034353;28;20053;-41
2021/12/26 07:49:03;;;;;;;5.25;2.45;;;;;;;-4.44;69.64;100611.56;5033123;28;20033;-41
2021/12/26 07:51:28;;;;;;;4.10;3.17;;;;;;;-4.42;69.08;100614.97;5016737;28;20022;-41
2021/12/26 07:53:58;;;;;;;7.78;3.25;;;;;;;-4.47;69.89;100617.03;5034177;28;20049;-41
2021/12/26 07:56:24;;;;;;;6.65;3.03;;;;;;;-4.43;69.66;100623.75;5034291;28;20029;-40
2021/12/26 07:58:49;;;;;;;4.25;2.75;;;;;;;-4.41;69.26;100611.38;5032716;28;20500;-42
2021/12/26 08:01:14;;;;;;;7.80;2.88;;;;;;;-4.37;68.99;100618.16;5032584;28;20058;-41
2021/12/26 08:03:40;;;;;;;6.88;3.13;;;;;;;-4.36;69.03;100619.00;5032907;28;20032;-41
2021/12/26 08:06:07;;;;;;;4.78;2.92;;;;;;;-4.34;69.09;100617.97;5034011;28;20022;-41
2021/12/26 08:08:33;;;;;;;9.00;3.28;;;;;;;-4.33;68.81;100610.94;5034056;28;20033;-41
2021/12/26 08:10:58;;;;;;;9.60;4.88;;;;;;;-4.35;68.92;100618.88;5034270;28;20052;-41
2021/12/26 08:13:23;;;;;;;7.53;4.45;;;;;;;-4.26;68.78;100620.16;5033878;28;20040;-41
2021/12/26 08:15:49;;;;;;;6.25;3.40;;;;;;;-4.25;68.78;100617.41;5033834;28;20029;-41
2021/12/26 08:18:14;;;;;;;6.05;3.75;;;;;;;-4.13;69.20;100614.97;5034156;28;20489;-41
2021/12/26 08:20:40;;;;;;;7.32;3.47;;;;;;;-4.15;69.33;100622.13;5034298;28;20478;-41
2021/12/26 08:23:05;;;;;;;9.32;3.35;;;;;;;-4.13;69.33;100615.84;5034029;28;20033;-40
2021/12/26 08:25:30;;;;;;;5.55;3.20;;;;;;;-3.89;68.91;100624.00;5032303;28;20025;-42
2021/12/26 08:27:56;;;;;;;5.30;2.65;;;;;;;-3.38;67.69;100616.38;5032184;28;20477;-39
2021/12/26 08:30:21;;;;;;;5.65;2.97;;;;;;;-2.92;66.46;100618.69;5033510;28;20025;-40
2021/12/26 08:32:51;;;;;;;15.27;3.70;;;;;;;-2.45;64.44;100617.31;5033460;28;20037;-42
2021/12/26 08:35:16;;;;;;;5.28;3.10;;;;;;;-2.16;63.21;100614.44;5033446;28;20036;-41
2021/12/26 08:37:42;;;;;;;6.38;3.50;;;;;;;-2.04;62.11;100629.41;5033283;28;20025;-42
2021/12/26 08:40:08;;;;;;;6.70;3.22;;;;;;;-1.94;62.84;100631.44;5033291;28;20060;-42
2021/12/26 08:42:34;;;;;;;6.97;3.97;;;;;;;-1.68;61.24;100625.16;5033099;28;20087;-42
2021/12/26 08:44:59;;;;;;;5.90;3.65;;;;;;;-1.50;61.06;100630.94;5033282;28;20056;-41
2021/12/26 08:47:25;;;;;;;7.22;3.85;;;;;;;-1.22;60.58;100628.94;5033110;28;20501;-42
2021/12/26 08:49:51;;;;;;;8.73;3.58;;;;;;;-0.78;59.30;100623.03;5033364;28;20064;-42
2021/12/26 08:52:16;;;;;;;6.90;3.88;;;;;;;-0.20;58.06;100624.88;5033201;28;20084;-41
2021/12/26 08:54:42;;;;;;;9.23;3.70;;;;;;;0.09;56.23;100626.09;5032940;28;20030;-41
2021/12/26 08:57:08;;;;;;;6.18;3.65;;;;;;;0.45;55.46;100626.81;5032961;28;20488;-41
2021/12/26 08:59:34;;;;;;;6.78;3.45;;;;;;;0.37;55.56;100618.63;5033111;28;20129;-41
2021/12/26 09:02:02;;;;;;;10.35;3.90;;;;;;;0.47;55.42;100618.75;5032773;28;20528;-41
2021/12/26 09:04:28;;;;;;;6.50;4.18;;;;;;;0.46;54.97;100611.78;5033141;28;20029;-40
2021/12/26 09:06:53;;;;;;;7.57;3.88;;;;;;;0.02;56.71;100614.28;5032683;28;20021;-42
2021/12/26 09:09:19;;;;;;;6.50;4.05;;;;;;;-0.03;56.26;100616.47;5031332;28;20032;-41
2021/12/26 09:11:44;;;;;;;9.02;4.07;;;;;;;-0.33;57.17;100609.09;5032876;28;20435;-41
2021/12/26 09:14:09;;;;;;;13.80;6.93;;;;;;;-0.71;58.50;100616.34;5032627;28;20055;-41
2021/12/26 09:16:35;;;;;;;9.52;4.00;;;;;;;-1.18;59.71;100618.06;5032465;28;20519;-41
2021/12/26 09:19:01;;;;;;;8.60;4.38;;;;;;;-1.52;61.01;100618.81;5032213;28;20049;-41
2021/12/26 09:21:27;;;;;;;9.30;4.18;;;;;;;-1.66;62.47;100617.13;5032438;28;20389;-41
2021/12/26 09:23:52;;;;;;;6.88;3.60;;;;;;;-1.87;63.27;100617.72;5031339;28;20036;-41
2021/12/26 09:26:18;;;;;;;8.27;4.10;;;;;;;-2.00;63.85;100609.81;5031205;28;20086;-41
2021/12/26 09:28:43;;;;;;;10.98;4.20;;;;;;;-2.02;64.42;100614.34;5032069;28;20393;-41
2021/12/26 09:31:09;;;;;;;5.63;3.47;;;;;;;-2.14;65.04;100602.00;5032498;28;20034;-41
2021/12/26 09:33:34;;;;;;;10.00;4.65;;;;;;;-2.22;65.61;100610.44;5031264;28;20121;-41
2021/12/26 09:36:00;;;;;;;7.78;4.47;;;;;;;-2.27;65.76;100607.28;5032385;28;20519;-41
2021/12/26 09:38:26;;;;;;;8.93;3.97;;;;;;;-2.34;66.09;100599.88;5032408;28;20025;-41
2021/12/26 09:40:51;;;;;;;8.88;4.38;;;;;;;-2.33;66.31;100606.88;5031034;28;20021;-41
2021/12/26 09:43:16;;;;;;;10.68;4.53;;;;;;;-2.30;66.23;100604.00;5032276;28;20167;-41
2021/12/26 09:45:42;;;;;;;7.80;4.80;;;;;;;-2.39;66.97;100600.22;5031296;28;20034;-40
2021/12/26 09:48:07;;;;;;;9.55;4.60;;;;;;;-2.43;67.22;100599.56;5032396;28;20380;-41
2021/12/26 09:50:32;;;;;;;10.30;4.60;;;;;;;-2.43;67.44;100602.19;5032225;28;20437;-41
2021/12/26 09:52:58;;;;;;;10.80;4.70;;;;;;;-2.43;67.89;100594.28;5032292;28;20032;-41
2021/12/26 09:55:28;;;;;;;10.07;4.72;;;;;;;-2.43;67.63;100591.66;5032520;28;20021;-40
2021/12/26 09:57:53;;;;;;;10.55;3.95;;;;;;;-2.44;67.40;100587.34;5032511;28;20030;-40
2021/12/26 10:00:31;;;;;;;8.10;3.90;;;;;;;-2.40;67.93;100585.34;5031880;28;20026;-41
2021/12/26 10:03:36;;;;;;;9.57;4.30;;;;;;;-2.38;67.36;100578.19;5031081;28;20377;-41
2021/12/26 10:06:10;;;;;;;10.57;4.22;;;;;;;-2.47;67.22;100584.09;5031807;28;20045;-40
2021/12/26 10:09:01;;;;;;;6.93;4.40;;;;;;;-2.34;68.10;100581.44;5032336;28;20385;-41
2021/12/26 10:11:38;;;;;;;8.73;4.00;;;;;;;-2.26;67.98;100576.50;5044199;28;20383;-40
2021/12/26 10:14:08;;;;;;;7.82;4.22;;;;;;;-2.17;67.68;100575.00;5030562;28;20025;-40
2021/12/26 10:16:42;;;;;;;9.82;4.63;;;;;;;-2.10;67.66;100578.91;5032018;28;20037;-40
2021/12/26 10:19:08;;;;;;;8.82;4.38;;;;;;;-2.21;67.90;100575.22;5032059;28;20107;-43
2021/12/26 10:21:40;;;;;;;7.03;4.38;;;;;;;-2.18;68.55;100574.19;5032153;28;20021;-41
2021/12/26 10:24:11;;;;;;;11.20;5.03;;;;;;;-2.07;68.42;100571.63;5030647;28;20402;-41
2021/12/26 10:26:39;;;;;;;8.63;3.90;;;;;;;-2.04;68.76;100558.22;5032067;28;20512;-41
2021/12/26 10:29:20;;;;;;;;;;;;;;;-2.06;68.17;100560.13;5031011;28;20040;-41
2021/12/26 10:32:05;;;;;;;10.73;4.60;;;;;;;-1.91;68.82;100552.09;5031896;28;19936;-42
2021/12/26 10:34:35;;;;;;;9.68;5.13;;;;;;;-1.79;68.59;100552.06;5031904;28;20030;-41
2021/12/26 10:37:03;;;;;;;8.82;4.65;;;;;;;-1.63;68.20;100548.31;5031225;28;20452;-41
2021/12/26 10:39:31;;;;;;;9.07;5.18;;;;;;;-1.62;68.13;100534.16;5033094;28;20079;-41
2021/12/26 10:42:03;;;;;;;16.50;6.20;;;;;;;-1.52;68.06;100545.75;5035423;28;20075;-41
2021/12/26 10:44:35;;;;;;;13.63;5.53;;;;;;;-1.50;68.29;100535.06;5035734;28;20489;-41
2021/12/26 10:47:05;;;;;;;12.05;5.72;;;;;;;-1.58;68.50;100535.63;5035446;28;20033;-40
2021/12/26 10:50:02;;;;;;;9.70;4.50;;;;;;;-1.37;68.57;100522.66;5035248;28;20113;-40
2021/12/26 10:52:34;;;;;;;10.93;5.78;;;;;;;-1.45;68.66;100528.53;5032104;28;20083;-40
2021/12/26 10:55:05;;;;;;;10.80;4.78;;;;;;;-1.33;68.69;100519.66;5035196;28;20458;-41
2021/12/26 10:57:34;;;;;;;13.13;6.10;;;;;;;-1.29;69.28;100530.88;5035142;28;20025;-41
2021/12/26 11:00:05;;;;;;;11.65;5.15;;;;;;;-1.18;68.79;100527.44;5035027;28;20025;-41
2021/12/26 11:02:32;;;;;;;12.15;5.25;;;;;;;-1.17;68.74;100519.38;5033756;28;20033;-41
2021/12/26 11:05:02;;;;;;;14.15;5.70;;;;;;;-1.15;68.08;100520.13;5035039;28;20029;-41
2021/12/26 11:07:28;;;;;;;9.63;4.90;;;;;;;-1.08;68.79;100525.75;5035008;28;20101;-42
2021/12/26 11:10:11;;;;;;;11.82;5.38;;;;;;;-1.02;68.74;100512.13;5034930;28;20393;-41
2021/12/26 11:12:39;;;;;;;9.60;5.43;;;;;;;-0.92;69.21;100522.84;5035121;28;20029;-41
2021/12/26 11:15:04;;;;;;;;;;;;;;;-0.98;69.37;100523.28;5035571;28;20045;-42
2021/12/26 11:17:31;;;;;;;12.30;5.93;;;;;;;-0.97;69.81;100522.34;5035122;28;20301;-41
2021/12/26 11:19:57;;;;;;;8.98;5.18;;;;;;;-0.95;70.38;100513.34;5034336;28;20049;-41
2021/12/26 11:22:23;;;;;;;11.75;6.28;;;;;;;-0.79;70.17;100510.38;5034805;28;20105;-41
2021/12/26 11:24:50;;;;;;;11.20;5.57;;;;;;;-0.81;70.18;100511.44;5034502;28;20026;-41
2021/12/26 11:27:15;;;;;;;14.32;6.75;;;;;;;-0.65;69.71;100519.06;5034312;28;20181;-40
2021/12/26 11:29:40;;;;;;;12.00;6.35;;;;;;;-0.58;69.05;100509.66;5034213;28;20164;-41